• Join FlightAware (Why Join?)
  • Login
  • US Flag 
07:13AM EDT


 

Airport Tracker/Info


-or-


 

Live Flight TrackerFlight Track Log ✈ N697BJ ✈ 22-Apr-2013 ✈ KSLN - KCMH

Flight Track Log - Related Links

Times and Time Zones

All times are in EDT time to prevent confusion due to time zone crossing. See the N697BJ flight status page for this flight to view local times or setup timezone preferences in your user account.

Time Position Orientation Groundspeed Altitude Reporting Facility
EDT Latitude Longitude Course Direction KTS MPH feet Rate Location/Type
03:08AM 38.7661 -97.4375 78° East 273 314 9,000  Level Kansas City Center
03:09AM 38.7928 -97.3294 72° East 307 353 11,100 2,160 Climbing Kansas City Center
03:10AM 38.8139 -97.2131 77° East 341 392 13,500 2,220 Climbing Kansas City Center
03:11AM 38.9290 -96.8219 76° East  Level FlightAware Approximate
03:11AM 38.8408 -97.0897 74° East 360 414 15,700  Level Kansas City Center
03:12AM 38.9500 -96.6819 90° East  Level FlightAware Approximate
03:12AM 38.8717 -96.9561 73° East 388 447 17,700  Level Kansas City Center
03:13AM 38.9011 -96.8178 75° East 399 459 19,600 2,040 Climbing Kansas City Center
03:14AM 38.9294 -96.6725 76° East 415 478 21,900 1,620 Climbing Kansas City Center
03:15AM 38.9517 -96.5278 79° East 414 476 22,900 1,260 Climbing Kansas City Center
03:16AM 38.9611 -96.3725 85° East 436 502 24,500 1,440 Climbing Kansas City Center
03:17AM 38.9817 -96.2217 80° East 446 513 25,800 1,320 Climbing Kansas City Center
03:18AM 39.0089 -96.0453 79° East 450 518 27,200 1,140 Climbing Kansas City Center
03:19AM 39.0256 -95.8897 82° East 460 529 28,200 960 Climbing Kansas City Center
03:20AM 39.0478 -95.7333 80° East 466 536 29,300 1,020 Climbing Kansas City Center
03:21AM 39.0722 -95.5511 80° East 463 533 30,300 1,080 Climbing Kansas City Center
03:22AM 39.0989 -95.3872 78° East 469 540 31,500 840 Climbing Kansas City Center
03:23AM 39.1294 -95.2253 76° East 470 541 32,100 660 Climbing Kansas City Center
03:24AM 39.1456 -95.0578 83° East 480 552 32,900 420 Climbing Kansas City Center
03:25AM 39.1503 -94.8939 88° East 481 554 33,000  Climbing Kansas City Center
03:26AM 39.1508 -94.7256 90° East 490 564 33,000  Level Kansas City Center
03:27AM 39.1592 -94.5317 87° East 488 562 33,000  Level Kansas City Center
03:28AM 39.1853 -94.3667 78° East 492 566 33,000  Level Kansas City Center
03:29AM 39.2069 -94.1986 81° East 495 570 33,000  Level Kansas City Center
03:30AM 39.2344 -94.0044 80° East 494 568 33,000  Level Kansas City Center
03:31AM 39.2589 -93.8372 79° East 494 568 33,000  Level Kansas City Center
03:32AM 39.2825 -93.6828 79° East 498 573 33,000  Level Kansas City Center
03:33AM 39.3094 -93.5106 79° East 496 571 33,000  Level Kansas City Center
03:34AM 39.3344 -93.3342 80° East 498 573 33,000  Level Kansas City Center
03:35AM 39.3569 -93.1267 82° East 496 571 33,000  Level Kansas City Center
03:36AM 39.3689 -92.9508 85° East 498 573 33,000  Level Kansas City Center
03:37AM 39.3783 -92.7736 86° East 499 574 33,000  Level Kansas City Center
03:38AM 39.3911 -92.5961 85° East 500 575 33,000  Level Kansas City Center
03:39AM 39.4114 -92.4253 81° East 496 571 33,000  Level Kansas City Center
03:40AM 39.4331 -92.2553 81° East 490 564 33,000  Level Kansas City Center
03:41AM 39.4528 -92.0856 81° East 486 559 33,000  Level Kansas City Center
03:42AM 39.4725 -91.9128 82° East 489 563 33,000  Level Kansas City Center
03:43AM 39.4933 -91.7400 81° East 490 564 33,000  Level Kansas City Center
03:44AM 39.5139 -91.5694 81° East 487 560 33,000  Level Kansas City Center
03:45AM 39.5319 -91.3994 82° East 484 557 33,000  Level Kansas City Center
03:46AM 39.5456 -91.2303 84° East 483 556 33,000  Level Kansas City Center
03:47AM 39.5542 -91.0556 86° East 484 557 33,000  Level Kansas City Center
03:48AM 39.5631 -90.8836 86° East 482 555 33,000  Level Kansas City Center
03:49AM 39.5747 -90.7089 85° East 484 557 33,000  Level Kansas City Center
03:50AM 39.5889 -90.5361 84° East 483 556 33,000  Level Kansas City Center
03:51AM 39.6064 -90.3653 82° East 480 552 33,000  Level Kansas City Center
03:52AM 39.6194 -90.1939 84° East 478 550 33,000  Level Kansas City Center
03:53AM 39.6350 -90.0217 83° East 479 551 33,000  Level Kansas City Center
03:54AM 39.6511 -89.8478 83° East 482 555 33,000  Level Kansas City Center
03:55AM 39.6692 -89.6750 82° East 483 556 33,000  Level Kansas City Center
03:56AM 39.6878 -89.5028 82° East 481 554 33,000  Level Kansas City Center
03:57AM 39.7047 -89.3303 83° East 482 555 33,000  Level Kansas City Center
03:58AM 39.7183 -89.1592 84° East 481 554 33,000  Level Kansas City Center
03:59AM 39.7292 -88.9889 85° East 479 551 33,000  Level Kansas City Center
04:00AM 39.7411 -88.8186 85° East 477 549 33,000  Level Kansas City Center
04:01AM 39.7533 -88.6133 86° East 477 549 33,000  Level Kansas City Center
04:02AM 39.7625 -88.4414 86° East 478 550 33,000  Level Kansas City Center
04:03AM 39.7736 -88.2689 85° East 480 552 33,000  Level Kansas City Center
04:04AM 39.7842 -88.1108 85° East 480 552 33,000  Level Kansas City Center
04:05AM 39.7911 -87.9769 86° East 477 549 33,000  Level Indianapolis Center
04:06AM 39.8028 -87.8050 85° East 476 548 33,000  Level Indianapolis Center
04:07AM 39.8158 -87.6333 84° East 475 547 33,000  Level Indianapolis Center
04:08AM 39.8292 -87.4617 84° East 475 547 33,000  Level Indianapolis Center
04:09AM 39.8436 -87.2886 84° East 478 550 33,000  Level Indianapolis Center
04:10AM 39.8569 -87.1164 84° East 476 548 33,000  Level Indianapolis Center
04:11AM 39.8664 -86.9428 86° East 477 549 33,000  Level Indianapolis Center
04:12AM 39.8733 -86.7675 87° East 480 552 33,000  Level Indianapolis Center
04:13AM 39.8786 -86.5944 88° East 478 550 33,000  Level Indianapolis Center
04:14AM 39.8794 -86.4550 90° East 478 550 33,000 -180 Level Indianapolis Center
04:15AM 39.8811 -86.2828 89° East 474 545 32,700 -600 Descending Indianapolis Center
04:16AM 39.8831 -86.1072 89° East 480 552 31,900 -900 Descending Indianapolis Center
04:17AM 39.8900 -85.9175 87° East 484 557 31,000 -900 Descending Indianapolis Center
04:18AM 39.9006 -85.7414 85° East 485 558 30,200 -840 Descending Indianapolis Center
04:19AM 39.9158 -85.5647 84° East 486 559 29,400 -840 Descending Indianapolis Center
04:20AM 39.9306 -85.3886 84° East 485 558 28,600 -900 Descending Indianapolis Center
04:21AM 39.9436 -85.2114 84° East 488 562 27,700 -960 Descending Indianapolis Center
04:22AM 39.9492 -85.0339 88° East 488 562 26,700 -1,200 Descending Indianapolis Center
04:23AM 39.9536 -84.8547 88° East 491 565 25,400 -1,500 Descending Indianapolis Center
04:24AM 39.9583 -84.6769 88° East 486 559 23,700 -1,620 Descending Indianapolis Center
04:25AM 39.9667 -84.5075 86° East 467 537 22,200 -1,560 Descending Indianapolis Center
04:26AM 39.9803 -84.3444 84° East 450 518 20,600 -1,800 Descending Indianapolis Center
04:27AM 39.9872 -84.1906 87° East 426 490 18,700 -1,920 Descending Indianapolis Center
04:28AM 39.9869 -84.0397 90° East 412 474 16,800 -2,040 Descending Indianapolis Center
04:29AM 39.9850 -83.9203 91° East 396 456 14,700 -2,460 Descending Indianapolis Center
04:30AM 39.9833 -83.7681 91° East 376 433 12,000 -1,800 Descending Indianapolis Center
04:31AM 39.9856 -83.6508 89° East 358 412 11,100 -660 Descending Indianapolis Center
04:32AM 39.9828 -83.5439 92° East 294 338 10,700 -900 Descending Indianapolis Center
04:33AM 39.9636 -83.4467 104° East 272 313 9,400 -1,380 Descending Indianapolis Center
04:34AM 39.9486 -83.3508 102° East 264 304 8,000 -1,620 Descending Indianapolis Center
04:35AM 39.9667 -83.2547 76° East 267 307 6,200 -1,680 Descending Indianapolis Center
04:36AM 39.9892 -83.1731 70° East 240 276 4,700 -1,260 Descending Indianapolis Center
04:37AM 40.0019 -83.1011 77° East 210 242 3,700 -960 Descending Indianapolis Center
04:38AM 40.0033 -83.0364 88° East 186 214 2,800 -900 Descending Indianapolis Center
04:39AM 39.9994 -82.9819 95° East 166 191 1,900 -840 Descending Indianapolis Center
04:40AM 39.9961 -82.9389 96° East 136 157 1,200 -540 Descending Indianapolis Center
04:41AM 39.9933 -82.8931 95° East 129 148 900 -300 Descending Indianapolis Center